sensor_id;sensor_type;location;lat;lon;timestamp;pressure;altitude;pressure_sealevel;temperature;humidity
47763;BME280;33526;42.690;23.322;2022-07-29T00:01:32;95235.19;;;19.79;80.31
47763;BME280;33526;42.690;23.322;2022-07-29T00:03:57;95229.25;;;19.83;79.22
47763;BME280;33526;42.690;23.322;2022-07-29T00:06:23;95242.84;;;19.90;79.18
47763;BME280;33526;42.690;23.322;2022-07-29T00:08:48;95189.13;;;19.62;78.97
47763;BME280;33526;42.690;23.322;2022-07-29T00:11:14;95257.31;;;20.22;78.36
47763;BME280;33526;42.690;23.322;2022-07-29T00:13:39;95250.81;;;20.28;77.44
47763;BME280;33526;42.690;23.322;2022-07-29T00:16:05;95231.75;;;20.22;76.96
47763;BME280;33526;42.690;23.322;2022-07-29T00:18:30;95249.66;;;20.42;77.08
47763;BME280;33526;42.690;23.322;2022-07-29T00:20:56;95180.63;;;19.98;75.97
47763;BME280;33526;42.690;23.322;2022-07-29T00:23:21;95248.56;;;20.45;75.85
47763;BME280;33526;42.690;23.322;2022-07-29T00:25:47;95226.31;;;20.24;76.04
47763;BME280;33526;42.690;23.322;2022-07-29T00:28:12;95252.13;;;20.51;76.30
47763;BME280;33526;42.690;23.322;2022-07-29T00:30:38;95181.53;;;20.12;76.31
47763;BME280;33526;42.690;23.322;2022-07-29T00:33:03;95259.28;;;20.64;75.71
47763;BME280;33526;42.690;23.322;2022-07-29T00:35:28;95211.78;;;20.34;74.92
47763;BME280;33526;42.690;23.322;2022-07-29T00:38:13;95258.63;;;20.46;75.52
47763;BME280;33526;42.690;23.322;2022-07-29T00:40:40;95235.25;;;20.04;76.51
47763;BME280;33526;42.690;23.322;2022-07-29T00:43:06;95263.97;;;20.25;76.65
47763;BME280;33526;42.690;23.322;2022-07-29T00:45:32;95187.09;;;19.57;76.62
47763;BME280;33526;42.690;23.322;2022-07-29T00:47:58;95249.19;;;20.02;77.30
47763;BME280;33526;42.690;23.322;2022-07-29T00:50:24;95180.56;;;19.32;80.27
47763;BME280;33526;42.690;23.322;2022-07-29T00:52:52;95201.81;;;19.08;82.40
47763;BME280;33526;42.690;23.322;2022-07-29T00:55:18;95258.19;;;19.17;84.10
47763;BME280;33526;42.690;23.322;2022-07-29T00:57:44;95257.22;;;19.03;85.09
47763;BME280;33526;42.690;23.322;2022-07-29T01:00:14;95239.69;;;19.10;85.48
47763;BME280;33526;42.690;23.322;2022-07-29T01:02:40;95266.19;;;19.13;85.06
47763;BME280;33526;42.690;23.322;2022-07-29T01:05:06;95265.19;;;19.10;85.37
47763;BME280;33526;42.690;23.322;2022-07-29T01:07:34;95261.84;;;19.01;85.99
47763;BME280;33526;42.690;23.322;2022-07-29T01:10:02;95222.78;;;18.77;85.81
47763;BME280;33526;42.690;23.322;2022-07-29T01:12:30;95186.34;;;18.33;86.90
47763;BME280;33526;42.690;23.322;2022-07-29T01:15:00;95223.84;;;18.62;86.51
47763;BME280;33526;42.690;23.322;2022-07-29T01:17:47;95255.19;;;18.98;86.51
47763;BME280;33526;42.690;23.322;2022-07-29T01:20:24;95199.66;;;18.61;85.37
47763;BME280;33526;42.690;23.322;2022-07-29T01:30:28;95238.03;;;19.32;83.92
47763;BME280;33526;42.690;23.322;2022-07-29T01:32:59;95240.56;;;19.41;83.08
47763;BME280;33526;42.690;23.322;2022-07-29T01:35:28;95165.09;;;18.91;82.63
47763;BME280;33526;42.690;23.322;2022-07-29T01:38:17;95231.22;;;19.52;83.18
47763;BME280;33526;42.690;23.322;2022-07-29T01:43:24;95228.63;;;19.54;83.39
47763;BME280;33526;42.690;23.322;2022-07-29T01:46:04;95215.97;;;19.55;83.28
47763;BME280;33526;42.690;23.322;2022-07-29T01:48:40;95208.03;;;19.54;83.11
47763;BME280;33526;42.690;23.322;2022-07-29T01:51:35;95241.63;;;19.80;82.70
47763;BME280;33526;42.690;23.322;2022-07-29T01:56:27;95190.09;;;19.34;83.01
47763;BME280;33526;42.690;23.322;2022-07-29T01:58:59;95172.28;;;19.34;82.94
47763;BME280;33526;42.690;23.322;2022-07-29T02:01:27;95155.09;;;19.26;83.36
47763;BME280;33526;42.690;23.322;2022-07-29T02:03:56;95226.00;;;19.62;83.59
47763;BME280;33526;42.690;23.322;2022-07-29T02:06:22;95154.72;;;18.99;84.95
47763;BME280;33526;42.690;23.322;2022-07-29T02:08:49;95144.50;;;18.85;85.66
47763;BME280;33526;42.690;23.322;2022-07-29T02:11:17;95205.78;;;19.35;85.60
47763;BME280;33526;42.690;23.322;2022-07-29T02:13:44;95225.16;;;19.31;86.22
47763;BME280;33526;42.690;23.322;2022-07-29T02:16:11;95198.75;;;19.06;86.66
47763;BME280;33526;42.690;23.322;2022-07-29T02:18:41;95180.22;;;18.99;86.59
47763;BME280;33526;42.690;23.322;2022-07-29T02:21:09;95166.84;;;19.00;85.58
47763;BME280;33526;42.690;23.322;2022-07-29T02:23:35;95194.69;;;19.37;84.69
47763;BME280;33526;42.690;23.322;2022-07-29T02:26:02;95217.53;;;19.56;83.95
47763;BME280;33526;42.690;23.322;2022-07-29T02:28:29;95194.13;;;19.44;83.98
47763;BME280;33526;42.690;23.322;2022-07-29T02:30:57;95214.72;;;19.51;84.27
47763;BME280;33526;42.690;23.322;2022-07-29T02:33:24;95199.31;;;19.40;84.51
47763;BME280;33526;42.690;23.322;2022-07-29T02:35:52;95216.69;;;19.67;83.57
47763;BME280;33526;42.690;23.322;2022-07-29T02:38:19;95197.84;;;19.70;83.78
47763;BME280;33526;42.690;23.322;2022-07-29T02:41:09;95197.84;;;19.70;83.38
47763;BME280;33526;42.690;23.322;2022-07-29T02:43:37;95120.88;;;19.18;83.72
47763;BME280;33526;42.690;23.322;2022-07-29T02:46:05;95143.16;;;19.39;83.38
47763;BME280;33526;42.690;23.322;2022-07-29T02:48:51;95127.50;;;19.26;83.62
47763;BME280;33526;42.690;23.322;2022-07-29T02:51:25;95119.16;;;19.04;84.10
47763;BME280;33526;42.690;23.322;2022-07-29T02:53:56;95207.22;;;19.53;85.37
47763;BME280;33526;42.690;23.322;2022-07-29T02:56:25;95141.31;;;19.05;86.21
47763;BME280;33526;42.690;23.322;2022-07-29T02:58:59;95143.84;;;19.15;85.56
47763;BME280;33526;42.690;23.322;2022-07-29T03:01:30;95133.78;;;19.14;85.13
47763;BME280;33526;42.690;23.322;2022-07-29T03:03:57;95160.34;;;19.10;86.83
47763;BME280;33526;42.690;23.322;2022-07-29T03:06:26;95114.97;;;18.63;87.73
47763;BME280;33526;42.690;23.322;2022-07-29T03:08:53;95116.34;;;18.40;88.78
47763;BME280;33526;42.690;23.322;2022-07-29T03:11:20;95194.75;;;18.73;89.67
47763;BME280;33526;42.690;23.322;2022-07-29T03:13:46;95212.97;;;18.78;89.76
47763;BME280;33526;42.690;23.322;2022-07-29T03:16:12;95189.34;;;18.69;89.72
47763;BME280;33526;42.690;23.322;2022-07-29T03:18:39;95198.31;;;18.79;89.70
47763;BME280;33526;42.690;23.322;2022-07-29T03:21:05;95203.19;;;18.90;89.54
47763;BME280;33526;42.690;23.322;2022-07-29T03:23:30;95208.59;;;18.88;89.15
47763;BME280;33526;42.690;23.322;2022-07-29T03:25:56;95184.66;;;18.89;88.35
47763;BME280;33526;42.690;23.322;2022-07-29T03:28:21;95210.59;;;19.04;87.59
47763;BME280;33526;42.690;23.322;2022-07-29T03:30:48;95150.19;;;18.73;87.29
47763;BME280;33526;42.690;23.322;2022-07-29T03:33:14;95164.06;;;18.77;87.35
47763;BME280;33526;42.690;23.322;2022-07-29T03:35:40;95201.53;;;19.12;87.25
47763;BME280;33526;42.690;23.322;2022-07-29T03:38:06;95147.34;;;18.85;87.09
47763;BME280;33526;42.690;23.322;2022-07-29T03:40:42;95210.97;;;19.31;86.57
47763;BME280;33526;42.690;23.322;2022-07-29T03:43:11;95182.50;;;19.06;86.42
47763;BME280;33526;42.690;23.322;2022-07-29T03:45:42;95146.06;;;18.80;86.34
47763;BME280;33526;42.690;23.322;2022-07-29T03:48:10;95192.81;;;19.09;86.29
47763;BME280;33526;42.690;23.322;2022-07-29T03:50:37;95225.31;;;19.44;85.38
47763;BME280;33526;42.690;23.322;2022-07-29T03:53:03;95140.84;;;18.96;84.77
47763;BME280;33526;42.690;23.322;2022-07-29T03:55:33;95227.66;;;19.40;84.76
47763;BME280;33526;42.690;23.322;2022-07-29T03:58:01;95204.75;;;19.38;84.44
47763;BME280;33526;42.690;23.322;2022-07-29T04:00:27;95203.38;;;19.51;83.57
47763;BME280;33526;42.690;23.322;2022-07-29T04:02:53;95227.72;;;19.76;82.88
47763;BME280;33526;42.690;23.322;2022-07-29T04:05:19;95200.22;;;19.60;82.15
47763;BME280;33526;42.690;23.322;2022-07-29T04:07:46;95129.81;;;19.28;81.63
47763;BME280;33526;42.690;23.322;2022-07-29T04:10:12;95204.13;;;19.93;80.95
47763;BME280;33526;42.690;23.322;2022-07-29T04:12:37;95228.47;;;20.13;80.54
47763;BME280;33526;42.690;23.322;2022-07-29T04:15:04;95231.66;;;20.34;79.76
47763;BME280;33526;42.690;23.322;2022-07-29T04:17:29;95196.63;;;20.50;78.48
47763;BME280;33526;42.690;23.322;2022-07-29T04:19:58;95206.88;;;21.27;75.05
47763;BME280;33526;42.690;23.322;2022-07-29T04:22:25;95199.50;;;21.56;72.22
47763;BME280;33526;42.690;23.322;2022-07-29T04:24:50;95156.09;;;21.69;69.90
47763;BME280;33526;42.690;23.322;2022-07-29T04:27:16;95206.28;;;22.64;67.94
47763;BME280;33526;42.690;23.322;2022-07-29T04:29:41;95186.56;;;22.66;66.72
47763;BME280;33526;42.690;23.322;2022-07-29T04:32:07;95145.78;;;22.84;65.23
47763;BME280;33526;42.690;23.322;2022-07-29T04:34:32;95207.13;;;23.87;63.17
47763;BME280;33526;42.690;23.322;2022-07-29T04:36:58;95227.41;;;24.17;61.65
47763;BME280;33526;42.690;23.322;2022-07-29T04:39:24;95224.63;;;24.46;60.18
47763;BME280;33526;42.690;23.322;2022-07-29T04:41:50;95238.00;;;24.72;59.21
47763;BME280;33526;42.690;23.322;2022-07-29T04:44:15;95202.22;;;24.79;58.22
47763;BME280;33526;42.690;23.322;2022-07-29T04:46:41;95218.09;;;24.88;58.29
47763;BME280;33526;42.690;23.322;2022-07-29T04:49:06;95232.84;;;24.50;60.03
47763;BME280;33526;42.690;23.322;2022-07-29T04:51:32;95196.84;;;24.75;59.07
47763;BME280;33526;42.690;23.322;2022-07-29T04:53:57;95209.19;;;24.99;57.72
47763;BME280;33526;42.690;23.322;2022-07-29T04:56:23;95200.06;;;25.00;56.37
47763;BME280;33526;42.690;23.322;2022-07-29T04:58:48;95230.28;;;25.17;56.81
47763;BME280;33526;42.690;23.322;2022-07-29T05:01:14;95217.84;;;25.43;55.50
47763;BME280;33526;42.690;23.322;2022-07-29T05:03:42;95219.91;;;25.35;55.82
47763;BME280;33526;42.690;23.322;2022-07-29T05:06:08;95226.72;;;25.61;55.44
47763;BME280;33526;42.690;23.322;2022-07-29T05:08:33;95214.22;;;25.94;54.25
47763;BME280;33526;42.690;23.322;2022-07-29T05:10:59;95194.78;;;26.01;53.31
47763;BME280;33526;42.690;23.322;2022-07-29T05:13:24;95238.34;;;25.63;54.58
47763;BME280;33526;42.690;23.322;2022-07-29T05:15:50;95202.78;;;26.02;53.01
47763;BME280;33526;42.690;23.322;2022-07-29T05:18:15;95198.03;;;26.20;52.17
47763;BME280;33526;42.690;23.322;2022-07-29T05:20:41;95229.75;;;25.63;53.91
47763;BME280;33526;42.690;23.322;2022-07-29T05:23:06;95198.44;;;24.84;55.89
47763;BME280;33526;42.690;23.322;2022-07-29T05:25:32;95178.97;;;24.83;56.25
47763;BME280;33526;42.690;23.322;2022-07-29T05:27:58;95232.63;;;25.26;55.40
47763;BME280;33526;42.690;23.322;2022-07-29T05:30:24;95203.72;;;25.37;54.87
47763;BME280;33526;42.690;23.322;2022-07-29T05:32:49;95176.22;;;25.34;54.62
47763;BME280;33526;42.690;23.322;2022-07-29T05:35:15;95211.50;;;25.89;54.05
47763;BME280;33526;42.690;23.322;2022-07-29T05:37:41;95171.59;;;25.91;53.31
47763;BME280;33526;42.690;23.322;2022-07-29T05:40:07;95219.66;;;26.67;51.28
47763;BME280;33526;42.690;23.322;2022-07-29T05:42:33;95180.09;;;26.74;50.59
47763;BME280;33526;42.690;23.322;2022-07-29T05:44:59;95238.69;;;27.19;49.81
47763;BME280;33526;42.690;23.322;2022-07-29T05:47:25;95231.75;;;27.53;49.13
47763;BME280;33526;42.690;23.322;2022-07-29T05:49:50;95229.44;;;27.59;48.41
47763;BME280;33526;42.690;23.322;2022-07-29T05:52:19;95205.38;;;27.46;48.72
47763;BME280;33526;42.690;23.322;2022-07-29T05:54:45;95238.66;;;27.98;47.53
47763;BME280;33526;42.690;23.322;2022-07-29T05:57:18;95164.09;;;27.19;47.66
47763;BME280;33526;42.690;23.322;2022-07-29T05:59:44;95243.63;;;27.97;46.49
47763;BME280;33526;42.690;23.322;2022-07-29T06:02:09;95160.59;;;26.80;47.99
47763;BME280;33526;42.690;23.322;2022-07-29T06:04:35;95139.56;;;26.54;48.18
47763;BME280;33526;42.690;23.322;2022-07-29T06:07:00;95139.22;;;26.11;48.92
47763;BME280;33526;42.690;23.322;2022-07-29T06:09:26;95153.16;;;26.30;48.97
47763;BME280;33526;42.690;23.322;2022-07-29T06:11:52;95121.81;;;25.94;49.94
47763;BME280;33526;42.690;23.322;2022-07-29T06:14:18;95253.69;;;26.94;49.71
47763;BME280;33526;42.690;23.322;2022-07-29T06:16:43;95210.88;;;26.65;49.60
47763;BME280;33526;42.690;23.322;2022-07-29T06:19:09;95234.34;;;27.10;48.99
47763;BME280;33526;42.690;23.322;2022-07-29T06:21:34;95168.22;;;26.54;49.35
47763;BME280;33526;42.690;23.322;2022-07-29T06:24:00;95246.03;;;26.58;50.79
47763;BME280;33526;42.690;23.322;2022-07-29T06:26:25;95216.56;;;26.04;52.14
47763;BME280;33526;42.690;23.322;2022-07-29T06:28:51;95205.75;;;25.73;52.35
47763;BME280;33526;42.690;23.322;2022-07-29T06:31:16;95237.94;;;25.59;53.27
47763;BME280;33526;42.690;23.322;2022-07-29T06:33:42;95225.44;;;25.33;54.27
47763;BME280;33526;42.690;23.322;2022-07-29T06:36:07;95238.69;;;25.23;54.38
47763;BME280;33526;42.690;23.322;2022-07-29T06:38:33;95163.94;;;24.53;54.75
47763;BME280;33526;42.690;23.322;2022-07-29T06:41:00;95177.81;;;24.28;55.58
47763;BME280;33526;42.690;23.322;2022-07-29T06:43:33;95186.59;;;24.30;56.26
47763;BME280;33526;42.690;23.322;2022-07-29T06:46:07;95215.50;;;24.69;56.23
47763;BME280;33526;42.690;23.322;2022-07-29T06:48:34;95237.84;;;25.07;56.15
47763;BME280;33526;42.690;23.322;2022-07-29T06:51:02;95209.91;;;24.92;56.12
47763;BME280;33526;42.690;23.322;2022-07-29T06:53:28;95212.38;;;24.88;55.44
47763;BME280;33526;42.690;23.322;2022-07-29T06:55:54;95221.63;;;25.02;55.56
47763;BME280;33526;42.690;23.322;2022-07-29T06:58:19;95241.81;;;25.25;55.17
47763;BME280;33526;42.690;23.322;2022-07-29T07:00:47;95205.91;;;25.24;55.16
47763;BME280;33526;42.690;23.322;2022-07-29T07:03:14;95138.78;;;24.88;54.27
47763;BME280;33526;42.690;23.322;2022-07-29T07:05:39;95187.13;;;25.07;55.07
47763;BME280;33526;42.690;23.322;2022-07-29T07:08:05;95222.59;;;25.41;54.28
47763;BME280;33526;42.690;23.322;2022-07-29T07:10:30;95226.25;;;25.41;54.26
47763;BME280;33526;42.690;23.322;2022-07-29T07:12:57;95218.19;;;25.32;54.36
47763;BME280;33526;42.690;23.322;2022-07-29T07:15:22;95220.31;;;25.39;53.66
47763;BME280;33526;42.690;23.322;2022-07-29T07:17:49;95146.44;;;24.57;55.07
47763;BME280;33526;42.690;23.322;2022-07-29T07:20:15;95207.69;;;24.98;54.88
47763;BME280;33526;42.690;23.322;2022-07-29T07:22:41;95132.44;;;24.46;54.67
47763;BME280;33526;42.690;23.322;2022-07-29T07:25:07;95169.09;;;24.84;54.07
47763;BME280;33526;42.690;23.322;2022-07-29T07:27:32;95191.63;;;24.95;53.51
47763;BME280;33526;42.690;23.322;2022-07-29T07:29:58;95178.38;;;25.13;53.37
47763;BME280;33526;42.690;23.322;2022-07-29T07:32:23;95140.66;;;25.14;53.03
47763;BME280;33526;42.690;23.322;2022-07-29T07:34:49;95128.16;;;25.33;52.36
47763;BME280;33526;42.690;23.322;2022-07-29T07:37:14;95171.03;;;25.85;51.67
47763;BME280;33526;42.690;23.322;2022-07-29T07:39:40;95119.03;;;25.42;51.43
47763;BME280;33526;42.690;23.322;2022-07-29T07:42:06;95216.19;;;26.07;50.81
47763;BME280;33526;42.690;23.322;2022-07-29T07:44:33;95206.97;;;25.93;50.99
47763;BME280;33526;42.690;23.322;2022-07-29T07:46:58;95170.47;;;25.79;50.77
47763;BME280;33526;42.690;23.322;2022-07-29T07:49:24;95221.91;;;26.07;51.36
47763;BME280;33526;42.690;23.322;2022-07-29T07:51:49;95192.75;;;25.65;51.05
47763;BME280;33526;42.690;23.322;2022-07-29T07:54:15;95203.66;;;25.82;51.64
47763;BME280;33526;42.690;23.322;2022-07-29T07:56:40;95141.03;;;25.63;51.14
47763;BME280;33526;42.690;23.322;2022-07-29T07:59:06;95220.97;;;26.36;50.10
47763;BME280;33526;42.690;23.322;2022-07-29T08:01:31;95088.44;;;25.22;50.83
47763;BME280;33526;42.690;23.322;2022-07-29T08:03:57;95107.19;;;25.38;50.25
47763;BME280;33526;42.690;23.322;2022-07-29T08:06:23;95109.84;;;25.36;50.90
47763;BME280;33526;42.690;23.322;2022-07-29T08:08:50;95139.31;;;25.60;50.66
47763;BME280;33526;42.690;23.322;2022-07-29T08:11:16;95163.66;;;25.97;50.20
47763;BME280;33526;42.690;23.322;2022-07-29T08:13:42;95120.63;;;25.74;50.30
47763;BME280;33526;42.690;23.322;2022-07-29T08:16:08;95215.06;;;26.49;49.55
47763;BME280;33526;42.690;23.322;2022-07-29T08:18:38;95214.69;;;26.60;49.48
47763;BME280;33526;42.690;23.322;2022-07-29T08:21:05;95186.38;;;26.41;48.91
47763;BME280;33526;42.690;23.322;2022-07-29T08:23:31;95184.28;;;26.26;48.47
47763;BME280;33526;42.690;23.322;2022-07-29T08:26:04;95211.25;;;26.69;48.20
47763;BME280;33526;42.690;23.322;2022-07-29T08:28:30;95162.72;;;26.56;48.06
47763;BME280;33526;42.690;23.322;2022-07-29T08:30:56;95134.81;;;26.64;47.39
47763;BME280;33526;42.690;23.322;2022-07-29T08:33:21;95087.44;;;26.32;46.55
47763;BME280;33526;42.690;23.322;2022-07-29T08:35:47;95080.94;;;26.40;46.77
47763;BME280;33526;42.690;23.322;2022-07-29T08:38:12;95116.41;;;26.83;46.36
47763;BME280;33526;42.690;23.322;2022-07-29T08:40:38;95187.09;;;27.26;45.67
47763;BME280;33526;42.690;23.322;2022-07-29T08:43:05;95103.78;;;26.86;45.36
47763;BME280;33526;42.690;23.322;2022-07-29T08:45:44;95185.06;;;27.52;44.91
47763;BME280;33526;42.690;23.322;2022-07-29T08:48:17;95194.63;;;27.95;44.43
47763;BME280;33526;42.690;23.322;2022-07-29T08:50:45;95169.53;;;27.96;44.27
47763;BME280;33526;42.690;23.322;2022-07-29T08:53:12;95206.50;;;28.25;43.34
47763;BME280;33526;42.690;23.322;2022-07-29T08:55:42;95127.78;;;27.62;42.95
47763;BME280;33526;42.690;23.322;2022-07-29T08:58:09;95196.97;;;28.14;43.08
47763;BME280;33526;42.690;23.322;2022-07-29T09:00:55;95197.38;;;28.18;42.84
47763;BME280;33526;42.690;23.322;2022-07-29T09:03:25;95152.25;;;28.03;42.20
47763;BME280;33526;42.690;23.322;2022-07-29T09:05:54;95165.50;;;28.24;42.20
47763;BME280;33526;42.690;23.322;2022-07-29T09:08:21;95121.00;;;27.75;41.87
47763;BME280;33526;42.690;23.322;2022-07-29T09:10:47;95040.06;;;27.43;42.23
47763;BME280;33526;42.690;23.322;2022-07-29T09:13:13;95147.97;;;28.12;41.35
47763;BME280;33526;42.690;23.322;2022-07-29T09:15:38;95081.75;;;27.77;41.63
47763;BME280;33526;42.690;23.322;2022-07-29T09:18:04;95056.41;;;27.91;41.79
47763;BME280;33526;42.690;23.322;2022-07-29T09:20:29;95079.19;;;28.14;40.93
47763;BME280;33526;42.690;23.322;2022-07-29T09:23:15;95085.47;;;28.20;39.94
47763;BME280;33526;42.690;23.322;2022-07-29T09:25:41;95124.03;;;28.35;39.92
47763;BME280;33526;42.690;23.322;2022-07-29T09:28:08;95185.72;;;28.84;39.86
47763;BME280;33526;42.690;23.322;2022-07-29T09:30:34;95172.97;;;28.77;39.68
47763;BME280;33526;42.690;23.322;2022-07-29T09:33:01;95133.19;;;28.41;39.69
47763;BME280;33526;42.690;23.322;2022-07-29T09:35:28;95181.84;;;28.89;39.81
47763;BME280;33526;42.690;23.322;2022-07-29T09:37:55;95119.19;;;28.63;39.55
47763;BME280;33526;42.690;23.322;2022-07-29T09:40:23;95145.03;;;28.88;39.14
47763;BME280;33526;42.690;23.322;2022-07-29T09:42:49;95132.59;;;28.85;39.24
47763;BME280;33526;42.690;23.322;2022-07-29T09:45:30;95091.28;;;28.55;39.61
47763;BME280;33526;42.690;23.322;2022-07-29T09:47:56;95147.50;;;29.09;39.17
47763;BME280;33526;42.690;23.322;2022-07-29T09:50:37;95165.28;;;29.15;40.02
47763;BME280;33526;42.690;23.322;2022-07-29T09:53:02;95109.66;;;28.60;39.75
47763;BME280;33526;42.690;23.322;2022-07-29T09:55:28;95094.69;;;28.62;39.71
47763;BME280;33526;42.690;23.322;2022-07-29T09:57:53;95156.66;;;29.15;39.88
47763;BME280;33526;42.690;23.322;2022-07-29T10:00:41;95098.66;;;28.84;39.01
47763;BME280;33526;42.690;23.322;2022-07-29T10:03:07;95152.25;;;29.31;38.95
47763;BME280;33526;42.690;23.322;2022-07-29T10:05:33;95111.78;;;29.12;39.50
47763;BME280;33526;42.690;23.322;2022-07-29T10:07:58;95093.16;;;28.95;38.23
47763;BME280;33526;42.690;23.322;2022-07-29T10:10:32;95138.16;;;29.53;38.93
47763;BME280;33526;42.690;23.322;2022-07-29T10:13:07;95100.66;;;29.43;38.72
47763;BME280;33526;42.690;23.322;2022-07-29T10:15:40;95044.94;;;29.21;38.34
47763;BME280;33526;42.690;23.322;2022-07-29T10:18:08;95036.66;;;29.35;38.95
47763;BME280;33526;42.690;23.322;2022-07-29T10:20:34;95074.06;;;29.80;38.50
47763;BME280;33526;42.690;23.322;2022-07-29T10:23:00;95061.78;;;29.52;37.93
47763;BME280;33526;42.690;23.322;2022-07-29T10:25:26;95024.94;;;29.06;38.05
47763;BME280;33526;42.690;23.322;2022-07-29T10:27:52;95104.94;;;29.69;37.25
47763;BME280;33526;42.690;23.322;2022-07-29T10:30:19;95104.72;;;29.85;37.07
47763;BME280;33526;42.690;23.322;2022-07-29T10:32:54;95120.50;;;29.84;37.86
47763;BME280;33526;42.690;23.322;2022-07-29T10:41:31;95106.28;;;29.96;36.34
47763;BME280;33526;42.690;23.322;2022-07-29T10:44:05;95014.28;;;29.43;36.07
47763;BME280;33526;42.690;23.322;2022-07-29T10:46:36;95088.44;;;30.07;36.69
47763;BME280;33526;42.690;23.322;2022-07-29T10:49:21;95097.38;;;30.38;36.41
47763;BME280;33526;42.690;23.322;2022-07-29T10:51:57;95086.63;;;30.58;35.38
47763;BME280;33526;42.690;23.322;2022-07-29T10:54:48;95092.56;;;30.70;35.90
47763;BME280;33526;42.690;23.322;2022-07-29T10:59:51;95079.47;;;30.49;35.24
47763;BME280;33526;42.690;23.322;2022-07-29T11:07:36;95030.28;;;30.38;34.84
47763;BME280;33526;42.690;23.322;2022-07-29T11:15:03;95056.28;;;30.77;35.51
47763;BME280;33526;42.690;23.322;2022-07-29T11:23:29;95054.91;;;30.68;34.81
47763;BME280;33526;42.690;23.322;2022-07-29T11:29:02;94984.31;;;30.59;34.68
47763;BME280;33526;42.690;23.322;2022-07-29T11:34:24;95046.44;;;31.09;34.63
47763;BME280;33526;42.690;23.322;2022-07-29T11:39:47;95050.38;;;31.23;34.35
47763;BME280;33526;42.690;23.322;2022-07-29T11:47:40;95007.78;;;31.53;33.95
47763;BME280;33526;42.690;23.322;2022-07-29T11:50:12;94953.59;;;31.22;34.22
47763;BME280;33526;42.690;23.322;2022-07-29T11:52:40;95007.13;;;31.65;33.70
47763;BME280;33526;42.690;23.322;2022-07-29T11:55:18;95036.22;;;31.88;33.76
47763;BME280;33526;42.690;23.322;2022-07-29T11:57:51;94987.03;;;31.67;33.96
47763;BME280;33526;42.690;23.322;2022-07-29T12:00:30;95035.56;;;31.58;33.15
47763;BME280;33526;42.690;23.322;2022-07-29T12:02:58;94990.06;;;31.18;33.63
47763;BME280;33526;42.690;23.322;2022-07-29T12:05:43;95037.22;;;31.61;34.07
47763;BME280;33526;42.690;23.322;2022-07-29T12:08:13;95029.91;;;31.70;34.01
47763;BME280;33526;42.690;23.322;2022-07-29T12:10:40;94978.19;;;31.23;33.39
47763;BME280;33526;42.690;23.322;2022-07-29T12:13:05;95031.47;;;31.42;33.45
47763;BME280;33526;42.690;23.322;2022-07-29T12:15:32;95005.06;;;31.36;33.40
47763;BME280;33526;42.690;23.322;2022-07-29T12:17:58;95013.88;;;31.38;33.67
47763;BME280;33526;42.690;23.322;2022-07-29T12:20:28;94980.19;;;31.11;32.82
47763;BME280;33526;42.690;23.322;2022-07-29T12:22:56;95007.66;;;31.22;33.13
47763;BME280;33526;42.690;23.322;2022-07-29T12:25:23;94924.66;;;30.62;33.31
47763;BME280;33526;42.690;23.322;2022-07-29T12:27:59;94987.13;;;31.28;33.49
47763;BME280;33526;42.690;23.322;2022-07-29T12:30:34;94996.59;;;31.18;33.19
47763;BME280;33526;42.690;23.322;2022-07-29T12:33:00;94949.06;;;31.00;32.82
47763;BME280;33526;42.690;23.322;2022-07-29T12:35:26;95005.44;;;31.71;33.23
47763;BME280;33526;42.690;23.322;2022-07-29T12:37:52;95004.31;;;31.86;33.25
47763;BME280;33526;42.690;23.322;2022-07-29T12:40:18;94973.00;;;31.82;32.65
47763;BME280;33526;42.690;23.322;2022-07-29T12:43:07;95015.59;;;32.13;32.57
47763;BME280;33526;42.690;23.322;2022-07-29T12:45:33;95022.22;;;32.26;32.24
47763;BME280;33526;42.690;23.322;2022-07-29T12:47:58;94958.63;;;31.94;32.35
47763;BME280;33526;42.690;23.322;2022-07-29T12:50:24;94951.81;;;31.90;32.54
47763;BME280;33526;42.690;23.322;2022-07-29T12:52:50;94998.63;;;32.29;31.82
47763;BME280;33526;42.690;23.322;2022-07-29T12:55:48;95013.69;;;32.28;32.07
47763;BME280;33526;42.690;23.322;2022-07-29T12:58:32;94965.47;;;31.68;32.41
47763;BME280;33526;42.690;23.322;2022-07-29T13:03:25;94898.09;;;31.65;32.53
47763;BME280;33526;42.690;23.322;2022-07-29T13:05:50;94942.44;;;32.11;31.50
47763;BME280;33526;42.690;23.322;2022-07-29T13:08:17;94931.50;;;31.99;31.93
47763;BME280;33526;42.690;23.322;2022-07-29T13:10:47;94967.91;;;32.46;31.37
47763;BME280;33526;42.690;23.322;2022-07-29T13:13:13;94983.97;;;32.58;31.31
47763;BME280;33526;42.690;23.322;2022-07-29T13:15:41;94927.44;;;32.24;31.63
47763;BME280;33526;42.690;23.322;2022-07-29T13:18:30;94988.56;;;32.73;31.71
47763;BME280;33526;42.690;23.322;2022-07-29T13:20:56;94885.84;;;32.08;30.88
47763;BME280;33526;42.690;23.322;2022-07-29T13:23:22;94958.53;;;32.57;31.15
47763;BME280;33526;42.690;23.322;2022-07-29T13:25:49;94987.19;;;32.53;31.39
47763;BME280;33526;42.690;23.322;2022-07-29T13:28:15;94905.00;;;32.13;31.39
47763;BME280;33526;42.690;23.322;2022-07-29T13:30:41;94897.50;;;31.88;31.52
47763;BME280;33526;42.690;23.322;2022-07-29T13:33:07;94912.81;;;31.69;32.12
47763;BME280;33526;42.690;23.322;2022-07-29T13:35:32;94927.78;;;31.87;31.99
47763;BME280;33526;42.690;23.322;2022-07-29T13:37:58;94907.97;;;31.72;31.59
47763;BME280;33526;42.690;23.322;2022-07-29T13:40:24;94952.34;;;32.29;31.24
47763;BME280;33526;42.690;23.322;2022-07-29T13:42:51;94865.72;;;31.67;31.74
47763;BME280;33526;42.690;23.322;2022-07-29T13:45:19;94863.63;;;31.57;32.14
47763;BME280;33526;42.690;23.322;2022-07-29T13:47:44;94883.31;;;31.71;32.13
47763;BME280;33526;42.690;23.322;2022-07-29T13:50:10;94892.97;;;31.85;32.18